createdAt,value
2017-07-28T00:00:58.499Z,99.20
2017-07-28T00:03:27.016Z,99.20
2017-07-28T00:05:55.866Z,99.90
2017-07-28T00:08:24.336Z,99.90
2017-07-28T00:10:53.637Z,99.90
2017-07-28T00:13:22.948Z,99.90
2017-07-28T00:15:52.201Z,99.90
2017-07-28T00:18:23.037Z,99.90
2017-07-28T00:20:51.543Z,99.90
2017-07-28T00:23:21.213Z,99.90
2017-07-28T00:25:49.678Z,99.90
2017-07-28T00:28:18.148Z,99.90
2017-07-28T00:30:46.674Z,99.90
2017-07-28T00:33:15.118Z,99.90
2017-07-28T00:35:43.591Z,99.90
2017-07-28T00:38:13.615Z,99.90
2017-07-28T00:40:42.612Z,99.90
2017-07-28T00:43:11.838Z,99.90
2017-07-28T00:45:40.545Z,99.90
2017-07-28T00:48:09.394Z,99.90
2017-07-28T00:50:38.689Z,99.90
2017-07-28T00:53:08.049Z,99.90
2017-07-28T00:55:36.936Z,99.90
2017-07-28T00:58:05.835Z,99.90
2017-07-28T01:00:35.421Z,99.90
2017-07-28T01:03:04.519Z,99.90
2017-07-28T01:05:32.993Z,99.90
2017-07-28T01:08:01.488Z,99.90
2017-07-28T01:10:31.174Z,99.90
2017-07-28T01:13:00.051Z,99.90
2017-07-28T01:15:29.301Z,99.90
2017-07-28T01:17:57.826Z,99.90
2017-07-28T01:20:26.313Z,99.90
2017-07-28T01:22:55.338Z,99.90
2017-07-28T01:25:24.019Z,99.90
2017-07-28T01:27:52.956Z,99.90
2017-07-28T01:30:22.003Z,99.90
2017-07-28T01:32:50.902Z,99.90
2017-07-28T01:35:19.608Z,99.90
2017-07-28T01:37:48.079Z,99.90
2017-07-28T01:40:17.238Z,99.90
2017-07-28T01:42:45.986Z,99.90
2017-07-28T01:45:15.026Z,99.90
2017-07-28T01:47:44.466Z,99.90
2017-07-28T01:50:13.111Z,99.90
2017-07-28T01:52:41.955Z,99.90
2017-07-28T01:55:10.417Z,99.90
2017-07-28T01:57:39.017Z,99.90
2017-07-28T02:00:07.183Z,99.90
2017-07-28T02:02:36.076Z,99.90
2017-07-28T02:05:05.336Z,99.90
2017-07-28T02:07:33.793Z,99.90
2017-07-28T02:10:04.016Z,99.90
2017-07-28T02:12:33.289Z,99.90
2017-07-28T02:15:03.083Z,99.90
2017-07-28T02:17:32.005Z,99.90
2017-07-28T02:20:01.868Z,99.90
2017-07-28T02:22:31.120Z,99.90
2017-07-28T02:25:00.388Z,99.90
2017-07-28T02:27:29.049Z,99.90
2017-07-28T02:29:58.330Z,99.90
2017-07-28T02:32:27.604Z,99.90
2017-07-28T02:34:56.077Z,99.90
2017-07-28T02:37:24.688Z,99.90
2017-07-28T02:39:53.147Z,99.90
2017-07-28T02:42:22.111Z,99.90
2017-07-28T02:44:50.617Z,99.90
2017-07-28T02:47:19.524Z,99.90
2017-07-28T02:49:47.998Z,99.90
2017-07-28T02:52:16.436Z,99.90
2017-07-28T02:54:45.358Z,99.90
2017-07-28T02:57:13.812Z,99.90
2017-07-28T02:59:42.278Z,99.90
2017-07-28T03:02:10.784Z,99.90
2017-07-28T03:04:39.232Z,99.90
2017-07-28T03:07:08.518Z,99.90
2017-07-28T03:09:37.740Z,99.90
2017-07-28T03:12:06.958Z,99.90
2017-07-28T03:14:35.806Z,99.90
2017-07-28T03:17:04.503Z,99.90
2017-07-28T03:19:33.164Z,99.90
2017-07-28T03:22:01.653Z,99.90
2017-07-28T03:24:30.121Z,99.90
2017-07-28T03:26:58.780Z,99.90
2017-07-28T03:29:27.285Z,99.90
2017-07-28T03:31:55.922Z,99.90
2017-07-28T03:34:24.385Z,99.90
2017-07-28T03:36:53.872Z,99.90
2017-07-28T03:39:22.740Z,99.90
2017-07-28T03:41:51.597Z,99.90
2017-07-28T03:44:20.092Z,99.90
2017-07-28T03:46:48.940Z,99.90
2017-07-28T03:49:17.802Z,99.90
2017-07-28T03:51:46.302Z,99.90
2017-07-28T03:54:15.716Z,99.90
2017-07-28T03:56:44.943Z,99.90
2017-07-28T03:59:13.427Z,99.90
2017-07-28T04:01:42.662Z,99.90
2017-07-28T04:04:11.710Z,99.90
2017-07-28T04:06:40.176Z,99.90
2017-07-28T04:09:09.467Z,99.90
2017-07-28T04:11:37.918Z,99.90
2017-07-28T04:14:06.840Z,99.90
2017-07-28T04:16:36.721Z,99.90
2017-07-28T04:19:05.182Z,99.90
2017-07-28T04:21:34.607Z,99.90
2017-07-28T04:24:03.055Z,99.90
2017-07-28T04:26:32.084Z,99.90
2017-07-28T04:29:00.924Z,99.90
2017-07-28T04:31:29.414Z,99.90
2017-07-28T04:33:57.915Z,99.90
2017-07-28T04:36:27.162Z,99.90
2017-07-28T04:38:55.755Z,99.90
2017-07-28T04:41:25.351Z,99.90
2017-07-28T04:43:54.385Z,99.90
2017-07-28T04:46:23.374Z,99.90
2017-07-28T04:48:52.044Z,99.90
2017-07-28T04:51:20.970Z,99.90
2017-07-28T04:53:49.538Z,99.90
2017-07-28T04:56:18.052Z,99.90
2017-07-28T04:58:46.961Z,99.60
2017-07-28T05:01:15.824Z,99.90
2017-07-28T05:03:45.080Z,99.40
2017-07-28T05:06:13.530Z,96.70
2017-07-28T05:08:41.996Z,96.20
2017-07-28T05:11:10.888Z,96.30
2017-07-28T05:13:39.767Z,96.20
2017-07-28T05:16:08.320Z,95.30
2017-07-28T05:18:36.766Z,91.10
2017-07-28T05:21:05.841Z,88.20
2017-07-28T05:23:34.275Z,86.90
2017-07-28T05:26:02.922Z,88.50
2017-07-28T05:28:32.226Z,86.20
2017-07-28T05:31:01.579Z,88.60
2017-07-28T05:33:30.056Z,89.00
2017-07-28T05:35:59.004Z,87.90
2017-07-28T05:38:28.183Z,88.50
2017-07-28T05:40:57.392Z,89.30
2017-07-28T05:43:25.870Z,85.70
2017-07-28T05:45:54.419Z,82.70
2017-07-28T05:48:22.872Z,82.80
2017-07-28T05:50:51.912Z,80.50
2017-07-28T05:53:20.816Z,80.00
2017-07-28T05:55:49.900Z,79.30
2017-07-28T05:58:18.880Z,76.70
2017-07-28T06:00:47.746Z,76.50
2017-07-28T06:03:16.209Z,75.00
2017-07-28T06:05:45.115Z,75.30
2017-07-28T06:08:13.593Z,77.10
2017-07-28T06:10:42.059Z,77.50
2017-07-28T06:13:10.989Z,75.80
2017-07-28T06:15:39.835Z,75.10
2017-07-28T06:18:08.681Z,75.90
2017-07-28T06:20:37.934Z,73.70
2017-07-28T06:23:06.840Z,74.70
2017-07-28T06:25:35.709Z,71.90
2017-07-28T06:28:05.095Z,71.90
2017-07-28T06:30:34.340Z,72.70
2017-07-28T06:33:02.789Z,73.60
2017-07-28T06:35:31.695Z,71.40
2017-07-28T06:38:00.155Z,68.80
2017-07-28T06:40:29.001Z,63.50
2017-07-28T06:42:57.528Z,64.80
2017-07-28T06:45:26.747Z,62.10
2017-07-28T06:47:55.215Z,54.90
2017-07-28T06:50:24.497Z,53.30
2017-07-28T06:52:53.151Z,52.60
2017-07-28T06:55:22.193Z,53.70
2017-07-28T06:57:51.442Z,53.30
2017-07-28T07:00:20.510Z,52.80
2017-07-28T07:02:48.957Z,51.50
2017-07-28T07:05:17.815Z,52.40
2017-07-28T07:07:46.710Z,48.20
2017-07-28T07:10:16.034Z,48.20
2017-07-28T07:12:46.223Z,52.90
2017-07-28T07:15:15.111Z,54.10
2017-07-28T07:17:44.329Z,54.60
2017-07-28T07:20:13.581Z,52.50
2017-07-28T07:22:42.090Z,54.10
2017-07-28T07:25:11.323Z,55.40
2017-07-28T07:27:40.544Z,58.20
2017-07-28T07:30:09.398Z,64.20
2017-07-28T07:32:38.634Z,66.40
2017-07-28T07:35:07.499Z,65.60
2017-07-28T07:37:36.758Z,64.30
2017-07-28T07:40:05.241Z,61.30
2017-07-28T07:42:33.697Z,61.10
2017-07-28T07:45:02.203Z,58.40
2017-07-28T07:47:31.053Z,61.50
2017-07-28T07:49:59.921Z,59.70
2017-07-28T07:52:28.439Z,58.70
2017-07-28T07:54:57.369Z,59.50
2017-07-28T07:57:26.215Z,59.50
2017-07-28T07:59:55.557Z,54.10
2017-07-28T08:02:25.144Z,52.20
2017-07-28T08:04:53.606Z,49.50
2017-07-28T08:07:22.059Z,43.90
2017-07-28T08:09:50.504Z,39.50
2017-07-28T08:12:18.979Z,38.50
2017-07-28T08:14:47.435Z,41.40
2017-07-28T08:17:16.290Z,45.20
2017-07-28T08:19:44.936Z,41.90
2017-07-28T08:22:13.829Z,41.60
2017-07-28T08:24:42.319Z,39.10
2017-07-28T08:27:11.166Z,41.40
2017-07-28T08:29:39.669Z,47.50
2017-07-28T08:32:08.570Z,50.60
2017-07-28T08:34:37.474Z,52.20
2017-07-28T08:37:06.332Z,50.90
2017-07-28T08:39:34.790Z,49.10
2017-07-28T08:42:03.305Z,45.00
2017-07-28T08:44:32.541Z,42.60
2017-07-28T08:47:01.012Z,41.30
2017-07-28T08:49:30.281Z,40.60
2017-07-28T08:51:59.539Z,39.70
2017-07-28T08:54:28.381Z,39.00
2017-07-28T08:56:56.843Z,39.50
2017-07-28T08:59:26.990Z,39.30
2017-07-28T09:01:56.234Z,37.30
2017-07-28T09:04:25.838Z,39.70
2017-07-28T09:06:55.095Z,42.00
2017-07-28T09:09:24.392Z,48.70
2017-07-28T09:11:52.899Z,53.30
2017-07-28T09:14:22.479Z,53.00
2017-07-28T09:19:20.468Z,52.70
2017-07-28T09:21:49.291Z,49.20
2017-07-28T09:24:19.243Z,45.40
2017-07-28T09:26:48.650Z,40.90
2017-07-28T09:29:17.095Z,37.40
2017-07-28T09:31:46.326Z,39.80
2017-07-28T09:34:15.643Z,37.80
2017-07-28T09:36:44.130Z,38.90
2017-07-28T09:39:12.693Z,37.50
2017-07-28T09:41:41.956Z,40.20
2017-07-28T09:44:10.811Z,40.80
2017-07-28T09:46:40.809Z,42.10
2017-07-28T09:49:09.679Z,41.40
2017-07-28T09:51:39.015Z,38.40
2017-07-28T09:54:07.978Z,38.60
2017-07-28T09:56:37.203Z,38.00
2017-07-28T09:59:06.060Z,38.00
2017-07-28T10:04:05.326Z,42.00
2017-07-28T10:06:34.543Z,44.60
2017-07-28T10:11:32.142Z,50.50
2017-07-28T10:14:01.029Z,50.60
2017-07-28T10:16:30.521Z,47.60
2017-07-28T10:18:59.365Z,44.70
2017-07-28T10:21:28.955Z,42.80
2017-07-28T10:23:57.303Z,41.30
2017-07-28T10:26:28.031Z,38.60
2017-07-28T10:28:56.886Z,36.50
2017-07-28T10:33:55.668Z,36.30
2017-07-28T10:36:24.516Z,34.80
2017-07-28T10:38:53.996Z,33.40
2017-07-28T10:41:23.431Z,34.50
2017-07-28T10:43:52.279Z,36.70
2017-07-28T10:48:50.629Z,34.60
2017-07-28T10:51:19.518Z,32.40
2017-07-28T10:53:48.764Z,33.00
2017-07-28T10:56:17.596Z,34.70
2017-07-28T10:58:46.485Z,37.50
2017-07-28T11:08:43.922Z,36.10
2017-07-28T11:11:12.381Z,43.00
2017-07-28T11:13:42.730Z,37.70
2017-07-28T11:18:40.689Z,32.70
2017-07-28T11:21:10.097Z,29.80
2017-07-28T11:23:40.049Z,27.10
2017-07-28T11:26:08.909Z,28.40
2017-07-28T11:28:37.757Z,29.40
2017-07-28T11:31:07.016Z,29.50
2017-07-28T11:33:35.857Z,29.20
2017-07-28T11:38:34.559Z,27.90
2017-07-28T11:43:32.804Z,32.60
2017-07-28T11:46:01.811Z,36.10
2017-07-28T11:48:31.131Z,38.70
2017-07-28T11:50:59.589Z,40.10
2017-07-28T11:55:58.152Z,40.70
2017-07-28T12:03:27.086Z,31.10
2017-07-28T12:05:55.378Z,32.30
2017-07-28T12:08:25.003Z,32.10
2017-07-28T12:10:53.716Z,34.00
2017-07-28T12:13:24.628Z,33.70
2017-07-28T12:15:53.942Z,29.80
2017-07-28T12:18:22.399Z,28.60
2017-07-28T12:20:51.593Z,26.90
2017-07-28T12:23:20.851Z,26.50
2017-07-28T12:25:49.293Z,28.90
2017-07-28T12:28:18.185Z,29.80
2017-07-28T12:30:48.162Z,30.00
2017-07-28T12:35:47.380Z,33.10
2017-07-28T12:38:17.018Z,30.90
2017-07-28T12:43:15.055Z,33.30
2017-07-28T12:48:13.416Z,33.70
2017-07-28T12:50:41.863Z,24.80
2017-07-28T12:55:40.454Z,25.30
2017-07-28T12:58:08.917Z,23.70
2017-07-28T13:00:37.879Z,26.80
2017-07-28T13:03:12.413Z,29.00
2017-07-28T13:05:41.604Z,30.30
2017-07-28T13:08:10.875Z,32.40
2017-07-28T13:10:39.709Z,32.70
2017-07-28T13:15:38.074Z,31.50
2017-07-28T13:20:36.711Z,32.80
2017-07-28T13:23:05.547Z,30.70
2017-07-28T13:25:34.472Z,29.70
2017-07-28T13:30:32.518Z,34.20
2017-07-28T13:35:32.012Z,32.20
2017-07-28T13:38:02.172Z,30.20
2017-07-28T13:40:30.675Z,28.90
2017-07-28T13:42:59.896Z,28.90
2017-07-28T13:45:29.474Z,30.70
2017-07-28T13:47:58.760Z,31.10
2017-07-28T13:52:57.836Z,32.30
2017-07-28T13:55:27.420Z,29.90
2017-07-28T13:57:57.389Z,28.90
2017-07-28T14:00:27.352Z,28.50
2017-07-28T14:02:57.454Z,29.00
2017-07-28T14:05:27.418Z,28.80
2017-07-28T14:07:57.054Z,31.40
2017-07-28T14:15:25.749Z,32.40
2017-07-28T14:17:54.592Z,34.30
2017-07-28T14:22:52.934Z,32.60
2017-07-28T14:25:21.777Z,33.50
2017-07-28T14:32:49.218Z,33.40
2017-07-28T14:35:19.176Z,32.90
2017-07-28T14:40:17.218Z,33.10
2017-07-28T14:42:47.398Z,32.40
2017-07-28T14:45:17.160Z,31.00
2017-07-28T14:50:15.062Z,33.10
2017-07-28T14:52:44.452Z,31.50
2017-07-28T14:57:43.552Z,28.80
2017-07-28T15:02:42.316Z,30.60
2017-07-28T15:07:42.141Z,33.40
2017-07-28T15:10:11.223Z,36.90
2017-07-28T15:12:39.874Z,36.00
2017-07-28T15:15:08.312Z,33.70
2017-07-28T15:17:37.031Z,30.70
2017-07-28T15:20:05.488Z,29.60
2017-07-28T15:22:34.688Z,29.40
2017-07-28T15:25:03.169Z,29.70
2017-07-28T15:27:31.839Z,30.60
2017-07-28T15:30:01.067Z,30.40
2017-07-28T15:32:30.302Z,30.90
2017-07-28T15:34:59.142Z,31.10
2017-07-28T15:37:28.716Z,29.40
2017-07-28T15:39:57.641Z,28.80
2017-07-28T15:42:26.866Z,29.10
2017-07-28T15:44:56.065Z,29.50
2017-07-28T15:47:26.079Z,31.10
2017-07-28T15:49:54.936Z,34.40
2017-07-28T15:52:23.384Z,32.20
2017-07-28T15:54:51.858Z,32.50
2017-07-28T15:57:20.693Z,32.10
2017-07-28T15:59:50.644Z,32.40
2017-07-28T16:02:19.530Z,32.00
2017-07-28T16:04:48.007Z,31.20
2017-07-28T16:07:17.641Z,32.40
2017-07-28T16:09:46.126Z,32.70
2017-07-28T16:14:46.903Z,31.00
2017-07-28T16:17:15.421Z,31.90
2017-07-28T16:19:43.879Z,32.20
2017-07-28T16:22:12.376Z,33.70
2017-07-28T16:24:40.844Z,33.90
2017-07-28T16:27:09.694Z,33.70
2017-07-28T16:29:38.204Z,32.20
2017-07-28T16:32:07.434Z,31.90
2017-07-28T16:34:36.672Z,32.90
2017-07-28T16:37:05.924Z,34.00
2017-07-28T16:39:34.359Z,34.10
2017-07-28T16:44:33.785Z,34.20
2017-07-28T16:47:03.759Z,34.60
2017-07-28T16:49:32.199Z,35.60
2017-07-28T16:52:00.692Z,34.40
2017-07-28T16:54:29.167Z,35.50
2017-07-28T16:56:57.996Z,36.20
2017-07-28T16:59:27.628Z,36.30
2017-07-28T17:01:57.074Z,37.10
2017-07-28T17:04:25.513Z,37.80
2017-07-28T17:06:54.383Z,37.50
2017-07-28T17:09:23.402Z,38.20
2017-07-28T17:11:58.910Z,38.60
2017-07-28T17:14:27.755Z,38.10
2017-07-28T17:16:56.976Z,37.70
2017-07-28T17:19:26.212Z,39.80
2017-07-28T17:21:54.680Z,40.00
2017-07-28T17:24:25.246Z,40.00
2017-07-28T17:26:54.327Z,40.10
2017-07-28T17:29:23.318Z,39.80
2017-07-28T17:31:52.157Z,40.60
2017-07-28T17:34:21.247Z,41.50
2017-07-28T17:36:49.675Z,40.80
2017-07-28T17:39:18.891Z,42.10
2017-07-28T17:44:17.983Z,46.20
2017-07-28T17:46:48.003Z,46.20
2017-07-28T17:49:17.973Z,46.00
2017-07-28T17:51:47.941Z,47.40
2017-07-28T17:54:17.893Z,48.10
2017-07-28T17:56:47.868Z,49.20
2017-07-28T18:04:16.126Z,52.20
2017-07-28T18:06:44.570Z,53.00
2017-07-28T18:09:13.462Z,54.10
2017-07-28T18:11:43.413Z,54.30
2017-07-28T18:14:11.841Z,55.30
2017-07-28T18:16:40.296Z,55.70
2017-07-28T18:19:10.258Z,57.30
2017-07-28T18:21:38.754Z,58.60
2017-07-28T18:24:07.195Z,60.40
2017-07-28T18:29:05.575Z,64.50
2017-07-28T18:31:35.726Z,65.00
2017-07-28T18:34:04.930Z,67.10
2017-07-28T18:36:34.181Z,67.40
2017-07-28T18:39:03.465Z,68.90
2017-07-28T18:41:33.738Z,69.50
2017-07-28T18:44:02.580Z,70.00
2017-07-28T18:46:32.522Z,71.40
2017-07-28T18:49:01.364Z,72.30
2017-07-28T18:53:59.805Z,72.50
2017-07-28T18:56:28.882Z,72.60
2017-07-28T18:58:57.728Z,73.90
2017-07-28T19:01:27.727Z,73.80
2017-07-28T19:03:56.201Z,75.30
2017-07-28T19:06:26.165Z,76.20
2017-07-28T19:08:55.401Z,75.80
2017-07-28T19:11:24.299Z,75.30
2017-07-28T19:13:53.913Z,75.10
2017-07-28T19:18:52.602Z,74.70
2017-07-28T19:21:21.803Z,74.30
2017-07-28T19:23:50.311Z,75.20
2017-07-28T19:26:19.147Z,74.70
2017-07-28T19:36:16.437Z,76.10
2017-07-28T19:38:45.949Z,75.20
2017-07-28T19:41:14.430Z,75.10
2017-07-28T19:43:44.503Z,75.50
2017-07-28T19:46:14.591Z,77.60
2017-07-28T19:48:44.525Z,78.30
2017-07-28T19:51:13.036Z,79.50
2017-07-28T19:53:41.876Z,81.20
2017-07-28T19:56:10.703Z,81.40
2017-07-28T20:03:38.639Z,81.40
2017-07-28T20:06:07.480Z,82.90
2017-07-28T20:08:37.113Z,84.70
2017-07-28T20:13:35.816Z,84.80
2017-07-28T20:18:34.328Z,82.60
2017-07-28T20:21:02.773Z,82.30
2017-07-28T20:23:31.663Z,82.80
2017-07-28T20:26:00.873Z,83.40
2017-07-28T20:28:30.827Z,83.50
2017-07-28T20:33:28.787Z,84.00
2017-07-28T20:35:57.634Z,84.30
2017-07-28T20:38:26.595Z,83.80
2017-07-28T20:40:55.491Z,83.20
2017-07-28T20:43:24.375Z,85.00
2017-07-28T20:45:54.531Z,84.70
2017-07-28T20:50:52.780Z,82.20
2017-07-28T20:53:22.770Z,82.00
2017-07-28T20:55:52.403Z,80.80
2017-07-28T20:58:20.862Z,80.50
2017-07-28T21:00:49.711Z,81.30
2017-07-28T21:03:18.736Z,82.80
2017-07-28T21:08:17.852Z,83.90
2017-07-28T21:10:47.084Z,83.90
2017-07-28T21:13:17.075Z,83.80
2017-07-28T21:15:46.312Z,83.70
2017-07-28T21:18:14.769Z,84.70
2017-07-28T21:20:44.391Z,85.30
2017-07-28T21:23:14.337Z,85.90
2017-07-28T21:25:43.583Z,86.70
2017-07-28T21:28:12.061Z,87.20
2017-07-28T21:30:41.278Z,87.80
2017-07-28T21:33:10.551Z,87.30
2017-07-28T21:35:40.494Z,87.80
2017-07-28T21:38:08.959Z,86.00
2017-07-28T21:40:37.452Z,85.30
2017-07-28T21:43:07.392Z,84.90
2017-07-28T21:48:06.839Z,86.40
2017-07-28T21:53:04.847Z,85.90
2017-07-28T21:55:34.787Z,85.00
2017-07-28T22:00:32.881Z,81.80
2017-07-28T22:03:02.089Z,81.30
2017-07-28T22:05:31.298Z,81.40
2017-07-28T22:07:59.066Z,81.60
2017-07-28T22:10:27.904Z,83.10
2017-07-28T22:12:57.525Z,85.20
2017-07-28T22:15:27.299Z,85.90
2017-07-28T22:17:56.184Z,85.40
2017-07-28T22:20:25.037Z,84.40
2017-07-28T22:22:53.512Z,81.90
2017-07-28T22:25:23.092Z,82.40
2017-07-28T22:32:51.272Z,87.20
2017-07-28T22:35:19.746Z,86.50
2017-07-28T22:37:49.366Z,86.90
2017-07-28T22:40:19.356Z,86.70
2017-07-28T22:42:48.952Z,86.70
2017-07-28T22:47:47.025Z,85.40
2017-07-28T22:50:16.241Z,85.70
2017-07-28T22:52:44.718Z,85.40
2017-07-28T22:55:14.351Z,86.70
2017-07-28T22:57:42.805Z,87.10
2017-07-28T23:00:12.792Z,86.50
2017-07-28T23:05:10.897Z,86.70
2017-07-28T23:07:40.686Z,87.10
2017-07-28T23:10:10.312Z,87.60
2017-07-28T23:12:39.147Z,87.60
2017-07-28T23:15:07.642Z,87.30
2017-07-28T23:17:37.243Z,87.40
2017-07-28T23:20:06.675Z,87.60
2017-07-28T23:22:35.542Z,89.10
2017-07-28T23:25:04.464Z,89.60
2017-07-28T23:30:03.242Z,90.90
2017-07-28T23:37:31.389Z,91.80
2017-07-28T23:40:00.595Z,89.60
2017-07-28T23:42:29.951Z,89.00
2017-07-28T23:44:59.486Z,89.10
2017-07-28T23:47:28.318Z,90.30
2017-07-28T23:49:57.623Z,92.00
2017-07-28T23:52:26.823Z,93.50
2017-07-28T23:54:55.660Z,93.10
2017-07-28T23:59:55.023Z,94.80
